Time;durP1;ratioP1;P1;durP2;ratioP2;P2;SDS_P1;SDS_P2;PMS_P1;PMS_P2;Temp;Humidity;BMP_temperature;BMP_pressure;BME280_temperature;BME280_humidity;BME280_pressure;Samples;Min_cycle;Max_cycle;Signal;HPM_P1;HPM_P2
2023/05/05 00:01:43;;;;;;;;;;;;;;;8.00;67.86;102233.28;5102148;27;1920;-77
2023/05/05 00:04:10;;;;;;;;;;;;;;;8.02;67.93;102233.09;5105395;27;1734;-79
2023/05/05 00:06:36;;;;;;;;;;;;;;;7.95;67.95;102233.75;5122275;27;1758;-78
2023/05/05 00:09:03;;;;;;;;;;;;;;;7.87;68.22;102235.56;5124409;27;1741;-78
2023/05/05 00:11:29;;;;;;;;;;;;;;;7.92;67.74;102242.13;5103318;27;4384;-78
2023/05/05 00:13:56;;;;;;;;;;;;;;;8.23;66.62;102238.88;5102956;27;3256;-79
2023/05/05 00:16:22;;;;;;;;;;;;;;;8.25;66.63;102244.91;5121446;27;3017;-79
2023/05/05 00:18:49;;;;;;;;;;;;;;;8.12;66.97;102237.34;5123184;27;1910;-77
2023/05/05 00:21:15;;;;;;;;;;;;;;;7.92;67.53;102241.28;5107233;27;1652;-78
2023/05/05 00:23:42;;;;;;;;;;;;;;;8.01;67.25;102242.16;5105274;27;1785;-78
2023/05/05 00:26:08;;;;;;;;;;;;;;;8.17;66.70;102237.66;5127619;27;1777;-78
2023/05/05 00:28:35;;;;;;;;;;;;;;;8.06;66.63;102242.50;5124817;27;3259;-77
2023/05/05 00:31:02;;;;;;;;;;;;;;;8.03;66.70;102237.44;5123323;27;1647;-77
2023/05/05 00:33:28;;;;;;;;;;;;;;;7.94;67.15;102242.81;5125499;27;1900;-76
2023/05/05 00:35:55;;;;;;;;;;;;;;;8.01;66.90;102240.31;5104421;27;2080;-75
2023/05/05 00:38:22;;;;;;;;;;;;;;;7.99;66.83;102241.47;5102736;27;1913;-77
2023/05/05 00:40:48;;;;;;;;;;;;;;;8.12;66.34;102241.88;5125044;27;1729;-77
2023/05/05 00:43:15;;;;;;;;;;;;;;;7.90;67.23;102241.44;5107979;27;1620;-75
2023/05/05 00:45:46;;;;;;;;;;;;;;;7.89;67.15;102234.41;5104579;27;1667;-77
2023/05/05 00:48:12;;;;;;;;;;;;;;;8.00;66.87;102240.47;5105219;27;1766;-76
2023/05/05 00:50:39;;;;;;;;;;;;;;;7.86;67.21;102236.56;5124125;27;1716;-77
2023/05/05 00:53:05;;;;;;;;;;;;;;;7.96;66.79;102245.31;5105712;27;1738;-79
2023/05/05 00:55:32;;;;;;;;;;;;;;;7.83;66.81;102237.72;5123530;27;1886;-77
2023/05/05 00:57:58;;;;;;;;;;;;;;;7.99;66.67;102245.00;5123361;27;1890;-76
2023/05/05 01:00:25;;;;;;;;;;;;;;;7.89;66.82;102236.25;5120262;27;1635;-76
2023/05/05 01:02:51;;;;;;;;;;;;;;;7.80;67.22;102240.72;5120667;27;1614;-81
2023/05/05 01:05:18;;;;;;;;;;;;;;;7.90;66.64;102241.44;5119248;27;1978;-79
2023/05/05 01:07:45;;;;;;;;;;;;;;;7.84;66.62;102243.94;5120989;27;1670;-75
2023/05/05 01:10:12;;;;;;;;;;;;;;;7.85;66.70;102241.09;5120715;27;1760;-77
2023/05/05 01:12:39;;;;;;;;;;;;;;;7.70;67.05;102245.34;5111658;27;1717;-75
2023/05/05 01:15:05;;;;;;;;;;;;;;;7.74;67.13;102241.38;5123535;27;1970;-76
2023/05/05 01:17:32;;;;;;;;;;;;;;;7.64;67.00;102246.00;5100936;27;5294;-79
2023/05/05 01:19:58;;;;;;;;;;;;;;;7.66;66.78;102241.31;5099037;27;4822;-76
2023/05/05 01:22:25;;;;;;;;;;;;;;;7.71;66.63;102239.84;5127963;27;4827;-77
2023/05/05 01:24:51;;;;;;;;;;;;;;;7.67;66.82;102234.94;5106254;27;1612;-78
2023/05/05 01:27:18;;;;;;;;;;;;;;;7.81;66.66;102246.94;5124208;27;1741;-77
2023/05/05 01:29:44;;;;;;;;;;;;;;;7.57;66.92;102239.59;5112325;27;1630;-75
2023/05/05 01:32:11;;;;;;;;;;;;;;;7.55;66.93;102246.94;5101336;27;1686;-76
2023/05/05 01:34:37;;;;;;;;;;;;;;;7.58;66.76;102244.78;5103761;27;5011;-77
2023/05/05 01:37:04;;;;;;;;;;;;;;;7.58;66.72;102244.78;5103535;27;1909;-75
2023/05/05 01:39:30;;;;;;;;;;;;;;;7.64;66.90;102244.16;5120256;27;1634;-75
2023/05/05 01:41:57;;;;;;;;;;;;;;;7.58;66.66;102242.09;5120601;27;1732;-75
2023/05/05 01:44:24;;;;;;;;;;;;;;;7.67;66.33;102246.50;5121103;27;1958;-76
2023/05/05 01:46:50;;;;;;;;;;;;;;;7.55;66.71;102241.59;5102905;27;1712;-78
2023/05/05 01:49:17;;;;;;;;;;;;;;;7.46;66.86;102243.38;5123583;27;1828;-75
2023/05/05 01:51:43;;;;;;;;;;;;;;;7.44;67.22;102248.03;5125509;27;1780;-76
2023/05/05 01:54:10;;;;;;;;;;;;;;;7.65;66.27;102248.53;5119791;27;2103;-75
2023/05/05 01:56:37;;;;;;;;;;;;;;;7.54;66.60;102250.63;5119500;27;1795;-74
2023/05/05 01:59:03;;;;;;;;;;;;;;;7.46;66.57;102246.06;5122728;27;1909;-76
2023/05/05 02:01:30;;;;;;;;;;;;;;;7.40;66.98;102242.16;5120827;27;1643;-77
2023/05/05 02:03:56;;;;;;;;;;;;;;;7.44;66.98;102251.59;5118799;27;1638;-75
2023/05/05 02:06:23;;;;;;;;;;;;;;;7.42;66.66;102250.06;5120878;27;1709;-76
2023/05/05 02:08:49;;;;;;;;;;;;;;;7.35;67.16;102246.31;5101061;27;2124;-77
2023/05/05 02:11:16;;;;;;;;;;;;;;;7.33;67.13;102251.84;5121685;27;1654;-77
2023/05/05 02:13:43;;;;;;;;;;;;;;;7.29;67.02;102250.47;5102715;27;1821;-76
2023/05/05 02:16:09;;;;;;;;;;;;;;;7.36;66.94;102248.03;5119341;27;1760;-76
2023/05/05 02:18:36;;;;;;;;;;;;;;;7.39;66.44;102253.91;5122386;27;1909;-77
2023/05/05 02:21:02;;;;;;;;;;;;;;;7.45;66.24;102245.22;5102311;28;1644;-77
2023/05/05 02:23:29;;;;;;;;;;;;;;;7.37;66.40;102255.88;5116221;27;1757;-79
2023/05/05 02:25:55;;;;;;;;;;;;;;;7.34;66.34;102247.31;5114269;27;1850;-80
2023/05/05 02:28:22;;;;;;;;;;;;;;;7.34;66.26;102253.53;5110767;27;1784;-79
2023/05/05 02:30:48;;;;;;;;;;;;;;;7.38;66.50;102246.00;5105885;27;1959;-78
2023/05/05 02:33:15;;;;;;;;;;;;;;;7.25;66.59;102247.25;5105208;27;1938;-79
2023/05/05 02:35:41;;;;;;;;;;;;;;;7.37;66.31;102238.97;5111444;27;1648;-78
2023/05/05 02:38:08;;;;;;;;;;;;;;;7.28;66.42;102246.09;5114302;27;1996;-77
2023/05/05 02:40:35;;;;;;;;;;;;;;;7.18;66.65;102240.84;5115376;27;4588;-78
2023/05/05 02:43:01;;;;;;;;;;;;;;;7.23;66.35;102243.88;5092413;28;4001;-79
2023/05/05 02:45:28;;;;;;;;;;;;;;;7.16;66.79;102247.38;5108166;28;1563;-77
2023/05/05 02:47:54;;;;;;;;;;;;;;;7.17;66.63;102249.88;5109962;28;3085;-76
2023/05/05 02:50:21;;;;;;;;;;;;;;;7.17;66.47;102249.88;5109069;28;1613;-78
2023/05/05 02:52:47;;;;;;;;;;;;;;;7.17;66.46;102246.34;5112340;28;1818;-77
2023/05/05 02:55:14;;;;;;;;;;;;;;;7.18;66.31;102240.84;5112737;28;1563;-76
2023/05/05 02:57:40;;;;;;;;;;;;;;;7.08;66.44;102245.44;5092133;28;1909;-76
2023/05/05 03:00:08;;;;;;;;;;;;;;;7.13;66.71;102247.69;5105805;28;3908;-79
2023/05/05 03:02:34;;;;;;;;;;;;;;;7.15;66.57;102251.06;5089265;28;1663;-78
2023/05/05 03:05:01;;;;;;;;;;;;;;;7.18;65.89;102243.53;5103955;28;1722;-77
2023/05/05 03:07:27;;;;;;;;;;;;;;;7.10;66.47;102238.09;5088737;28;1595;-81
2023/05/05 03:09:54;;;;;;;;;;;;;;;7.05;66.62;102243.09;5113095;28;1547;-76
2023/05/05 03:12:23;;;;;;;;;;;;;;;7.08;66.32;102245.44;5112467;28;1862;-78
2023/05/05 03:14:50;;;;;;;;;;;;;;;7.01;66.43;102241.72;5111939;27;1568;-79
2023/05/05 03:17:17;;;;;;;;;;;;;;;7.00;66.58;102245.38;5114641;27;1699;-79
2023/05/05 03:19:43;;;;;;;;;;;;;;;7.02;66.57;102249.59;5114522;27;1969;-76
2023/05/05 03:22:10;;;;;;;;;;;;;;;7.09;65.81;102248.97;5115998;27;1688;-76
2023/05/05 03:24:36;;;;;;;;;;;;;;;7.03;66.30;102247.78;5100377;27;1628;-75
2023/05/05 03:27:03;;;;;;;;;;;;;;;6.99;66.27;102249.06;5113698;27;1748;-80
2023/05/05 03:29:30;;;;;;;;;;;;;;;7.02;66.12;102248.75;5100178;28;1680;-80
2023/05/05 03:31:56;;;;;;;;;;;;;;;6.97;66.51;102259.09;5122541;27;1852;-79
2023/05/05 03:34:23;;;;;;;;;;;;;;;7.04;66.28;102252.13;5124582;27;1910;-78
2023/05/05 03:36:49;;;;;;;;;;;;;;;6.95;66.14;102256.56;5123489;27;1661;-79
2023/05/05 03:39:17;;;;;;;;;;;;;;;6.90;66.24;102250.00;5134984;27;1909;-79
2023/05/05 03:41:43;;;;;;;;;;;;;;;6.90;66.15;102258.88;5129177;27;1771;-78
2023/05/05 03:44:10;;;;;;;;;;;;;;;6.87;66.57;102259.19;5116209;27;1676;-78
2023/05/05 03:46:36;;;;;;;;;;;;;;;6.93;66.02;102263.06;5089298;27;5217;-77
2023/05/05 03:49:03;;;;;;;;;;;;;;;6.95;65.89;102259.25;5086003;27;4927;-77
2023/05/05 03:51:30;;;;;;;;;;;;;;;6.92;66.02;102267.59;5104983;27;1685;-77
2023/05/05 03:53:56;;;;;;;;;;;;;;;6.90;65.68;102261.53;5104625;27;4620;-77
2023/05/05 03:56:23;;;;;;;;;;;;;;;6.96;65.70;102266.28;5108195;27;1682;-78
2023/05/05 03:58:49;;;;;;;;;;;;;;;6.86;66.29;102267.38;5104871;27;1906;-77
2023/05/05 04:01:16;;;;;;;;;;;;;;;6.85;66.08;102271.88;5085658;27;1729;-76
2023/05/05 04:03:43;;;;;;;;;;;;;;;6.79;66.32;102278.72;5104324;27;1732;-75
2023/05/05 04:06:09;;;;;;;;;;;;;;;6.78;66.35;102281.53;5104960;27;4953;-76
2023/05/05 04:08:36;;;;;;;;;;;;;;;6.74;66.08;102282.84;5106472;27;1756;-76
2023/05/05 04:11:02;;;;;;;;;;;;;;;6.76;66.14;102288.84;5113205;27;2031;-77
2023/05/05 04:13:29;;;;;;;;;;;;;;;6.76;66.26;102289.69;5105903;27;1851;-77
2023/05/05 04:15:56;;;;;;;;;;;;;;;6.77;66.25;102296.75;5102857;27;1665;-76
2023/05/05 04:18:23;;;;;;;;;;;;;;;6.76;66.15;102291.53;5105905;27;2019;-76
2023/05/05 04:20:49;;;;;;;;;;;;;;;6.77;65.81;102294.06;5108291;27;1737;-77
2023/05/05 04:23:16;;;;;;;;;;;;;;;6.71;66.19;102305.41;5106832;27;1682;-77
2023/05/05 04:25:42;;;;;;;;;;;;;;;6.75;66.11;102300.56;5111722;27;1836;-80
2023/05/05 04:28:09;;;;;;;;;;;;;;;6.71;66.12;102293.84;5092689;27;1920;-77
2023/05/05 04:30:35;;;;;;;;;;;;;;;6.74;65.81;102297.06;5107755;27;1715;-76
2023/05/05 04:33:02;;;;;;;;;;;;;;;6.66;66.13;102299.66;5095218;27;1924;-76
2023/05/05 04:35:28;;;;;;;;;;;;;;;6.67;65.75;102295.97;5088664;27;1758;-77
2023/05/05 04:37:55;;;;;;;;;;;;;;;6.64;66.02;102293.59;5088298;27;2001;-76
2023/05/05 04:40:22;;;;;;;;;;;;;;;6.66;66.07;102298.81;5111914;27;1947;-76
2023/05/05 04:42:48;;;;;;;;;;;;;;;6.65;65.81;102297.97;5117358;27;1992;-77
2023/05/05 04:45:15;;;;;;;;;;;;;;;6.65;65.76;102303.31;5109278;27;1733;-77
2023/05/05 04:47:41;;;;;;;;;;;;;;;6.62;66.12;102300.09;5092978;27;1726;-77
2023/05/05 04:50:08;;;;;;;;;;;;;;;6.62;66.09;102305.44;5107287;27;1821;-79
2023/05/05 04:52:34;;;;;;;;;;;;;;;6.58;65.99;102305.75;5109715;27;1691;-78
2023/05/05 04:55:01;;;;;;;;;;;;;;;6.59;65.83;102306.63;5109901;27;2044;-77
2023/05/05 04:57:27;;;;;;;;;;;;;;;6.59;65.89;102303.94;5116140;27;1858;-77
2023/05/05 04:59:54;;;;;;;;;;;;;;;6.55;66.05;102311.41;5116094;27;1913;-77
2023/05/05 05:02:20;;;;;;;;;;;;;;;6.56;65.92;102306.91;5100105;27;1854;-76
2023/05/05 05:04:47;;;;;;;;;;;;;;;6.54;66.05;102312.41;5099648;27;1981;-78
2023/05/05 05:07:14;;;;;;;;;;;;;;;6.51;65.99;102299.31;5117882;27;1954;-77
2023/05/05 05:09:40;;;;;;;;;;;;;;;6.51;65.61;102307.34;5118817;27;1889;-78
2023/05/05 05:12:08;;;;;;;;;;;;;;;6.50;65.75;102307.50;5096623;27;5007;-77
2023/05/05 05:14:35;;;;;;;;;;;;;;;6.49;65.95;102309.31;5116816;27;3498;-79
2023/05/05 05:17:01;;;;;;;;;;;;;;;6.50;65.64;102310.16;5117339;27;3155;-78
2023/05/05 05:19:28;;;;;;;;;;;;;;;6.50;65.64;102310.16;5099481;28;1910;-78
2023/05/05 05:21:54;;;;;;;;;;;;;;;6.50;65.77;102312.84;5121726;27;2125;-77
2023/05/05 05:24:21;;;;;;;;;;;;;;;6.48;65.54;102309.50;5123284;27;1777;-77
2023/05/05 05:26:47;;;;;;;;;;;;;;;6.51;65.70;102310.03;5116421;27;1753;-77
2023/05/05 05:29:14;;;;;;;;;;;;;;;6.52;65.72;102308.19;5099934;27;3960;-78
2023/05/05 05:31:42;;;;;;;;;;;;;;;6.47;65.54;102311.34;5119571;27;1970;-77
2023/05/05 05:34:09;;;;;;;;;;;;;;;6.46;65.85;102311.47;5121776;27;1958;-77
2023/05/05 05:36:35;;;;;;;;;;;;;;;6.45;65.50;102312.47;5120765;27;1796;-77
2023/05/05 05:39:02;;;;;;;;;;;;;;;6.43;65.84;102309.09;5105283;28;1992;-79
2023/05/05 05:41:28;;;;;;;;;;;;;;;6.42;65.83;102310.94;5104128;28;1713;-79
2023/05/05 05:43:55;;;;;;;;;;;;;;;6.42;65.69;102312.78;5091389;28;1852;-79
2023/05/05 05:46:21;;;;;;;;;;;;;;;6.41;65.58;102316.41;5089719;28;2074;-78
2023/05/05 05:48:48;;;;;;;;;;;;;;;6.39;65.74;102313.06;5100257;27;2192;-78
2023/05/05 05:51:14;;;;;;;;;;;;;;;6.37;65.61;102306.00;5107527;28;2029;-79
2023/05/05 05:53:41;;;;;;;;;;;;;;;6.38;65.72;102309.53;5085714;28;1895;-80
2023/05/05 05:56:08;;;;;;;;;;;;;;;6.39;65.53;102313.06;5092515;28;1760;-80
2023/05/05 05:58:35;;;;;;;;;;;;;;;6.37;65.64;102310.53;5076419;28;1995;-80
2023/05/05 06:01:02;;;;;;;;;;;;;;;6.38;65.38;102320.22;5075193;28;1787;-78
2023/05/05 06:03:29;;;;;;;;;;;;;;;6.37;65.66;102322.06;5075963;28;1906;-78
2023/05/05 06:05:55;;;;;;;;;;;;;;;6.35;65.48;102318.72;5092649;28;1655;-81
2023/05/05 06:08:22;;;;;;;;;;;;;;;6.36;65.64;102325.75;5077023;28;1700;-81
2023/05/05 06:10:48;;;;;;;;;;;;;;;6.36;65.61;102324.91;5097124;28;1698;-81
2023/05/05 06:13:15;;;;;;;;;;;;;;;6.34;65.54;102321.53;5094268;28;1699;-83
2023/05/05 06:15:41;;;;;;;;;;;;;;;6.33;65.34;102323.38;5083501;28;1965;-83
2023/05/05 06:18:08;;;;;;;;;;;;;;;6.34;65.32;102322.38;5099254;28;5079;-83
2023/05/05 06:20:35;;;;;;;;;;;;;;;6.34;65.28;102316.19;5102647;28;1910;-84
2023/05/05 06:23:01;;;;;;;;;;;;;;;6.32;65.34;102318.16;5103820;28;5044;-81
2023/05/05 06:25:28;;;;;;;;;;;;;;;6.31;65.16;102311.13;5085073;28;2035;-82
2023/05/05 06:27:54;;;;;;;;;;;;;;;6.31;65.34;102301.25;5090980;28;1980;-85
2023/05/05 06:30:21;;;;;;;;;;;;;;;6.31;65.29;102311.13;5102315;28;1743;-85
2023/05/05 06:32:47;;;;;;;;;;;;;;;6.30;65.20;102312.13;5099335;28;1897;-84
2023/05/05 06:35:13;;;;;;;;;;;;;;;6.30;65.43;102315.66;5086485;28;4929;-81
2023/05/05 06:37:40;;;;;;;;;;;;;;;6.30;65.52;102310.28;5097120;28;2169;-82
2023/05/05 06:40:06;;;;;;;;;;;;;;;6.29;65.33;102305.91;5096794;27;1894;-80
2023/05/05 06:42:33;;;;;;;;;;;;;;;6.29;65.39;102311.25;5093342;28;1753;-83
2023/05/05 06:44:59;;;;;;;;;;;;;;;6.29;65.43;102305.91;5109411;28;1674;-83
2023/05/05 06:47:26;;;;;;;;;;;;;;;6.30;65.39;102322.84;5093887;28;1783;-82
2023/05/05 06:49:52;;;;;;;;;;;;;;;6.29;65.26;102313.94;5092268;28;1717;-82
2023/05/05 06:52:18;;;;;;;;;;;;;;;6.28;65.44;102311.44;5108988;28;1714;-81
2023/05/05 06:54:45;;;;;;;;;;;;;;;6.30;65.32;102310.28;5107792;28;1554;-83
2023/05/05 06:57:12;;;;;;;;;;;;;;;6.28;65.26;102317.63;5127634;28;1823;-83
2023/05/05 06:59:38;;;;;;;;;;;;;;;6.28;65.09;102309.59;5111203;28;1914;-83
2023/05/05 07:02:05;;;;;;;;;;;;;;;6.27;65.08;102309.75;5120440;28;5254;-83
2023/05/05 07:04:31;;;;;;;;;;;;;;;6.26;65.32;102316.91;5114189;28;1692;-82
2023/05/05 07:06:58;;;;;;;;;;;;;;;6.26;65.12;102310.72;5110251;28;5261;-82
2023/05/05 07:09:24;;;;;;;;;;;;;;;6.27;65.14;102320.47;5103017;28;1556;-84
2023/05/05 07:11:51;;;;;;;;;;;;;;;6.26;65.39;102310.72;5117596;28;1730;-82
2023/05/05 07:14:18;;;;;;;;;;;;;;;6.27;65.08;102315.94;5121621;28;1592;-83
2023/05/05 07:16:45;;;;;;;;;;;;;;;6.26;65.12;102316.06;5115343;28;2009;-82
2023/05/05 07:19:11;;;;;;;;;;;;;;;6.26;65.09;102313.41;5103238;28;4433;-84
2023/05/05 07:21:38;;;;;;;;;;;;;;;6.26;65.44;102316.06;5133853;28;1539;-82
2023/05/05 07:24:04;;;;;;;;;;;;;;;6.26;64.97;102308.88;5108261;28;1905;-82
2023/05/05 07:26:31;;;;;;;;;;;;;;;6.25;65.47;102309.06;5103194;28;1573;-82
2023/05/05 07:28:58;;;;;;;;;;;;;;;6.25;65.25;102304.53;5126968;28;1746;-84
2023/05/05 07:31:24;;;;;;;;;;;;;;;6.26;65.17;102310.72;5115414;27;1954;-85
2023/05/05 07:33:50;;;;;;;;;;;;;;;6.25;65.25;102309.88;5103433;28;1768;-84
2023/05/05 07:36:17;;;;;;;;;;;;;;;6.28;64.90;102311.44;5102635;28;1873;-83
2023/05/05 07:38:44;;;;;;;;;;;;;;;6.27;64.83;102309.75;5117036;27;1910;-85
2023/05/05 07:41:11;;;;;;;;;;;;;;;6.27;65.09;102313.25;5115608;28;3823;-84
2023/05/05 07:43:39;;;;;;;;;;;;;;;6.27;65.16;102307.06;5100156;28;3919;-85
2023/05/05 07:46:06;;;;;;;;;;;;;;;6.26;65.14;102311.56;5100050;28;1711;-84
2023/05/05 07:48:32;;;;;;;;;;;;;;;6.26;65.11;102306.22;5118109;28;3974;-85
2023/05/05 07:50:59;;;;;;;;;;;;;;;6.29;64.82;102307.75;5100799;28;1715;-85
2023/05/05 07:53:25;;;;;;;;;;;;;;;6.29;65.13;102300.56;5104022;28;1812;-86
2023/05/05 07:55:52;;;;;;;;;;;;;;;6.26;64.62;102292.84;5125342;28;1749;-85
2023/05/05 07:58:18;;;;;;;;;;;;;;;6.27;65.07;102296.38;5104492;28;1845;-86
2023/05/05 08:00:45;;;;;;;;;;;;;;;6.28;65.14;102293.53;5101957;27;3798;-86
2023/05/05 08:03:11;;;;;;;;;;;;;;;6.27;65.09;102301.72;5123009;27;1691;-85
2023/05/05 08:05:38;;;;;;;;;;;;;;;6.30;64.97;102301.44;5120032;27;1734;-85
2023/05/05 08:08:05;;;;;;;;;;;;;;;6.30;64.81;102301.44;5104545;27;1762;-86
2023/05/05 08:10:31;;;;;;;;;;;;;;;6.29;65.04;102295.22;5102377;27;1703;-85
2023/05/05 08:12:57;;;;;;;;;;;;;;;6.30;65.18;102293.41;5108180;27;1787;-85
2023/05/05 08:15:24;;;;;;;;;;;;;;;6.30;64.99;102288.88;5110978;27;1880;-85
2023/05/05 08:17:50;;;;;;;;;;;;;;;6.31;65.17;102297.75;5124536;27;1745;-86
2023/05/05 08:20:17;;;;;;;;;;;;;;;6.31;64.87;102282.53;5104007;27;1909;-85
2023/05/05 08:22:44;;;;;;;;;;;;;;;6.30;64.98;102285.38;5102025;28;1765;-86
2023/05/05 08:25:11;;;;;;;;;;;;;;;6.30;65.15;102296.91;5119854;27;1761;-87
2023/05/05 08:27:38;;;;;;;;;;;;;;;6.33;64.95;102291.25;5122491;27;1848;-86
2023/05/05 08:30:05;;;;;;;;;;;;;;;6.33;65.18;102285.91;5103625;27;1738;-85
2023/05/05 08:32:31;;;;;;;;;;;;;;;6.33;65.08;102283.22;5122839;27;1935;-84
2023/05/05 08:34:57;;;;;;;;;;;;;;;6.33;65.06;102285.91;5115467;27;1806;-85
2023/05/05 08:37:24;;;;;;;;;;;;;;;6.33;65.17;102285.91;5118180;27;4967;-84
2023/05/05 08:39:51;;;;;;;;;;;;;;;6.34;64.96;102279.56;5114974;27;5230;-85
2023/05/05 08:42:18;;;;;;;;;;;;;;;6.35;65.18;102289.28;5103610;27;1913;-86
2023/05/05 08:44:47;;;;;;;;;;;;;;;6.36;64.97;102287.44;5125138;27;4975;-87
2023/05/05 08:47:14;;;;;;;;;;;;;;;6.37;65.28;102283.78;5121725;27;2019;-87
2023/05/05 08:49:43;;;;;;;;;;;;;;;6.37;65.21;102278.41;5122679;27;1689;-86
2023/05/05 08:52:13;;;;;;;;;;;;;;;6.38;64.99;102277.41;5101727;28;1854;-86
2023/05/05 08:54:39;;;;;;;;;;;;;;;6.39;65.22;102279.13;5104932;27;1866;-86
2023/05/05 08:57:06;;;;;;;;;;;;;;;6.39;64.97;102276.44;5121631;27;1737;-85
2023/05/05 08:59:32;;;;;;;;;;;;;;;6.41;65.30;102268.25;5108351;27;1972;-87
2023/05/05 09:01:59;;;;;;;;;;;;;;;6.40;65.31;102274.59;5103271;27;1820;-85
2023/05/05 09:04:26;;;;;;;;;;;;;;;6.41;65.11;102273.59;5104428;27;1877;-85
2023/05/05 09:06:52;;;;;;;;;;;;;;;6.42;65.31;102278.81;5121306;27;1625;-86
2023/05/05 09:09:19;;;;;;;;;;;;;;;6.42;65.37;102275.31;5103091;27;1714;-86
2023/05/05 09:11:45;;;;;;;;;;;;;;;6.44;65.24;102270.63;5108584;27;1911;-85
2023/05/05 09:14:12;;;;;;;;;;;;;;;6.44;65.32;102268.81;5100323;27;1777;-87
2023/05/05 09:16:39;;;;;;;;;;;;;;;6.44;65.14;102268.81;5120758;27;1721;-86
2023/05/05 09:19:08;;;;;;;;;;;;;;;6.45;65.05;102264.28;5121793;27;1873;-86
2023/05/05 09:21:34;;;;;;;;;;;;;;;6.45;65.39;102273.16;5105205;27;1922;-87
2023/05/05 09:24:02;;;;;;;;;;;;;;;6.47;65.42;102267.63;5100683;27;1873;-86
2023/05/05 09:26:29;;;;;;;;;;;;;;;6.47;65.28;102268.50;5123627;27;1820;-87
2023/05/05 09:28:57;;;;;;;;;;;;;;;6.48;65.15;102266.66;5103812;27;1913;-87
2023/05/05 09:31:28;;;;;;;;;;;;;;;6.48;65.16;102264.81;5101536;27;1920;-86
2023/05/05 09:33:59;;;;;;;;;;;;;;;6.49;65.37;102266.50;5120789;27;1682;-86
2023/05/05 09:36:27;;;;;;;;;;;;;;;6.50;65.16;102265.53;5121221;27;2086;-85
2023/05/05 09:38:54;;;;;;;;;;;;;;;6.51;65.53;102261.84;5116427;27;1832;-87
2023/05/05 09:41:20;;;;;;;;;;;;;;;6.52;65.44;102265.34;5109187;28;2024;-87
2023/05/05 09:43:50;;;;;;;;;;;;;;;6.52;65.37;102265.34;5105063;27;1778;-87
2023/05/05 09:46:17;;;;;;;;;;;;;;;6.52;65.63;102260.84;5105756;27;1699;-82
2023/05/05 09:48:47;;;;;;;;;;;;;;;6.53;65.21;102259.88;5125862;27;2162;-83
2023/05/05 09:51:14;;;;;;;;;;;;;;;6.54;65.41;102250.84;5105864;27;1759;-84
2023/05/05 09:53:41;;;;;;;;;;;;;;;6.54;65.62;102258.03;5123182;27;1610;-85
2023/05/05 09:56:09;;;;;;;;;;;;;;;6.55;65.70;102257.84;5114834;27;1703;-85
2023/05/05 09:58:35;;;;;;;;;;;;;;;6.60;65.48;102252.06;5121407;27;1876;-84
2023/05/05 10:01:02;;;;;;;;;;;;;;;6.59;65.69;102253.91;5120635;27;1918;-85
2023/05/05 10:03:28;;;;;;;;;;;;;;;6.58;65.69;102257.56;5119804;27;2188;-85
2023/05/05 10:05:57;;;;;;;;;;;;;;;6.58;65.79;102248.69;5098763;27;1768;-83
2023/05/05 10:08:25;;;;;;;;;;;;;;;6.59;65.83;102251.22;5104059;27;1798;-86
2023/05/05 10:10:55;;;;;;;;;;;;;;;6.59;65.50;102253.91;5103850;27;4681;-85
2023/05/05 10:13:22;;;;;;;;;;;;;;;6.61;65.85;102248.38;5098117;27;4481;-84
2023/05/05 10:15:49;;;;;;;;;;;;;;;6.61;65.79;102235.00;5122668;27;1803;-87
2023/05/05 10:18:16;;;;;;;;;;;;;;;6.62;66.03;102241.19;5098526;27;1885;-85
2023/05/05 10:20:43;;;;;;;;;;;;;;;6.65;65.56;102238.19;5099125;27;1913;-85
2023/05/05 10:23:09;;;;;;;;;;;;;;;6.65;65.98;102233.72;5101358;28;1912;-84
2023/05/05 10:25:38;;;;;;;;;;;;;;;6.66;65.93;102242.59;5101454;28;1900;-86
2023/05/05 10:28:04;;;;;;;;;;;;;;;6.67;65.85;102236.22;5120225;27;2145;-84
2023/05/05 10:30:30;;;;;;;;;;;;;;;6.68;65.80;102240.59;5120382;27;1725;-83
2023/05/05 10:32:57;;;;;;;;;;;;;;;6.68;66.08;102232.56;5101135;27;1743;-84
2023/05/05 10:35:25;;;;;;;;;;;;;;;6.69;65.72;102224.38;5118780;27;2028;-85
2023/05/05 10:37:54;;;;;;;;;;;;;;;6.70;66.03;102215.34;5096605;28;4258;-86
2023/05/05 10:40:20;;;;;;;;;;;;;;;6.71;65.84;102225.06;5098376;28;2520;-84
2023/05/05 10:42:47;;;;;;;;;;;;;;;6.73;65.83;102219.53;5102257;28;1876;-83
2023/05/05 10:45:13;;;;;;;;;;;;;;;6.73;66.15;102220.38;5104256;28;2395;-84
2023/05/05 10:47:40;;;;;;;;;;;;;;;6.74;65.80;102214.03;5107405;28;1687;-85
2023/05/05 10:50:08;;;;;;;;;;;;;;;6.74;65.76;102210.53;5100495;28;2252;-84
2023/05/05 10:52:34;;;;;;;;;;;;;;;6.75;66.17;102198.81;5100350;28;1725;-84
2023/05/05 10:55:26;;;;;;;;;;;;;;;6.78;66.00;102202.03;5121507;28;2586;-84
2023/05/05 10:58:18;;;;;;;;;;;;;;;6.78;66.19;102209.22;5122624;28;2134;-85
2023/05/05 11:01:13;;;;;;;;;;;;;;;6.79;66.33;102206.41;5118480;28;2066;-84
2023/05/05 11:04:07;;;;;;;;;;;;;;;6.81;66.19;102204.38;5116164;28;2002;-85
2023/05/05 11:06:59;;;;;;;;;;;;;;;6.82;66.40;102197.19;5121301;28;1883;-84
2023/05/05 11:09:51;;;;;;;;;;;;;;;6.83;66.07;102204.25;5120963;28;1718;-85
2023/05/05 11:12:43;;;;;;;;;;;;;;;6.84;66.20;102195.22;5112884;28;1774;-83
2023/05/05 11:15:36;;;;;;;;;;;;;;;6.85;66.05;102188.00;5113009;28;1883;-84
2023/05/05 11:18:28;;;;;;;;;;;;;;;6.86;66.26;102179.81;5116802;28;1660;-83
2023/05/05 11:21:19;;;;;;;;;;;;;;;6.87;66.37;102178.00;5119766;28;1913;-86
2023/05/05 11:24:11;;;;;;;;;;;;;;;6.88;66.52;102167.09;5123009;28;1582;-84
2023/05/05 11:27:05;;;;;;;;;;;;;;;6.89;66.18;102173.31;5123977;28;4175;-85
2023/05/05 11:29:59;;;;;;;;;;;;;;;6.90;66.33;102178.50;5124989;28;1757;-84
2023/05/05 11:32:51;;;;;;;;;;;;;;;6.92;66.43;102168.50;5118253;28;1686;-84
2023/05/05 11:35:43;;;;;;;;;;;;;;;6.94;66.66;102162.97;5119939;27;1919;-84
2023/05/05 11:38:35;;;;;;;;;;;;;;;6.94;66.39;102161.16;5122105;27;1879;-82
2023/05/05 11:41:29;;;;;;;;;;;;;;;6.96;66.76;102158.28;5111550;27;1918;-83
2023/05/05 11:44:21;;;;;;;;;;;;;;;6.98;66.55;102153.63;5130424;27;1689;-84
2023/05/05 11:47:13;;;;;;;;;;;;;;;6.99;66.72;102141.91;5122274;27;2039;-83
2023/05/05 11:50:05;;;;;;;;;;;;;;;7.01;66.84;102145.28;5107034;27;1750;-82
2023/05/05 11:52:57;;;;;;;;;;;;;;;7.02;66.70;102144.28;5124202;27;1816;-82
2023/05/05 11:55:49;;;;;;;;;;;;;;;7.03;66.83;102140.63;5123485;27;2109;-84
2023/05/05 11:58:41;;;;;;;;;;;;;;;7.06;66.85;102137.63;5122071;27;1740;-83
2023/05/05 12:01:33;;;;;;;;;;;;;;;7.08;66.80;102135.59;5115070;27;1951;-85
2023/05/05 12:04:25;;;;;;;;;;;;;;;7.11;66.83;102127.25;5117996;27;1773;-84
2023/05/05 12:07:17;;;;;;;;;;;;;;;7.11;67.03;102127.25;5118143;27;1742;-82
2023/05/05 12:10:09;;;;;;;;;;;;;;;7.13;66.91;102121.75;5117107;27;1800;-83
2023/05/05 12:13:02;;;;;;;;;;;;;;;7.13;67.00;102117.22;5115266;27;2137;-83
2023/05/05 12:15:57;;;;;;;;;;;;;;;7.14;67.00;102118.88;5118767;27;1686;-83
2023/05/05 12:18:49;;;;;;;;;;;;;;;7.16;67.02;102116.91;5118353;27;1803;-84
2023/05/05 12:21:40;;;;;;;;;;;;;;;7.18;67.04;102116.75;5116197;27;1898;-83
2023/05/05 12:24:32;;;;;;;;;;;;;;;7.19;66.99;102107.72;5116295;27;1875;-82
2023/05/05 12:27:25;;;;;;;;;;;;;;;7.21;67.48;102117.28;5117075;27;1733;-84
2023/05/05 12:30:17;;;;;;;;;;;;;;;7.22;67.27;102112.75;5115073;27;1737;-82
2023/05/05 12:33:08;;;;;;;;;;;;;;;7.25;67.49;102107.91;5124336;27;1671;-83
2023/05/05 12:36:00;;;;;;;;;;;;;;;7.28;67.34;102112.94;5123054;27;1671;-84
2023/05/05 12:38:52;;;;;;;;;;;;;;;7.27;67.15;102103.22;5121764;27;1832;-82
2023/05/05 12:41:44;;;;;;;;;;;;;;;7.28;67.33;102107.56;5116482;27;4807;-82
2023/05/05 12:44:36;;;;;;;;;;;;;;;7.32;67.62;102096.53;5126609;27;1711;-83
2023/05/05 12:47:28;;;;;;;;;;;;;;;7.33;67.79;102090.19;5121183;27;1697;-83
2023/05/05 12:50:20;;;;;;;;;;;;;;;7.35;67.70;102080.13;5126207;27;1784;-82
2023/05/05 12:53:12;;;;;;;;;;;;;;;7.38;67.43;102082.47;5121654;27;1698;-84
2023/05/05 12:56:04;;;;;;;;;;;;;;;7.43;67.36;102088.22;5122348;27;1924;-81
2023/05/05 12:58:56;;;;;;;;;;;;;;;7.43;67.43;102089.03;5123752;27;1730;-81
2023/05/05 13:01:48;;;;;;;;;;;;;;;7.44;67.53;102081.84;5119257;27;1913;-82
2023/05/05 13:04:40;;;;;;;;;;;;;;;7.46;67.78;102069.97;5121989;27;2217;-82
2023/05/05 13:07:32;;;;;;;;;;;;;;;7.48;67.82;102070.63;5119535;27;1794;-82
2023/05/05 13:10:25;;;;;;;;;;;;;;;7.51;67.63;102085.56;5119430;27;1709;-83
2023/05/05 13:13:17;;;;;;;;;;;;;;;7.53;67.95;102077.34;5123506;27;1713;-81
2023/05/05 13:16:09;;;;;;;;;;;;;;;7.54;67.89;102065.63;5121262;27;1776;-82